Wall Township, New Jersey
Current Conditions -  °F | °C
As of 5:55 PM on Thursday 23 Oct 2014 (Local Time) from KBLM Reporting Station
Overcast Overcast  
Wind Chill: 52°   Ceiling: 2400
Heat Index: 52°   Visibility: 10mi
Dew Point: 45°   Wind: 13mph
Humidity: 76%   Direction: 320°NW
Pressure: 29.73"   Gusts: 20mph
Location:  40.1528°N, 74.0364°W
Report Text: KBLM 232155Z AUTO 32011G17KT 10SM OVC024 11/07 A2973 RMK AO1
Loading
Personal Weather Stations






























Interactive Weather Map
Tropical Storm Tracking
New forecast layout! Learn more

10-Day Weather Forecast

Advertisements
Track Severe Weather on mobile